Ashby, Massachusetts
Current Conditions -  °F | °C
As of 3:52 PM on Friday 24 Oct 2014 (Local Time) from KFIT Reporting Station
Overcast Overcast  
Wind Chill: 52°   Ceiling: 2300
Heat Index: 52°   Visibility: 10mi
Dew Point: 42°   Wind: 8mph
Humidity: 69%   Direction: 330°NNW
Pressure: 29.72"   Gusts: NA
Location:  42.68°N, 71.82°W
Report Text: KFIT 241952Z AUTO 33007KT 10SM OVC023 11/06 A2972 RMK AO2 SLP064 T01110056
Loading
Personal Weather Stations






























Interactive Weather Map
Tropical Storm Tracking
New forecast layout! Learn more

10-Day Weather Forecast

Advertisements
Track Severe Weather on mobile